sensor_id;sensor_type;location;lat;lon;timestamp;P1;durP1;ratioP1;P2;durP2;ratioP2
54627;SDS011;40525;55.926;21.066;2023-02-11T08:50:46;19.40;;;2.20;;
54627;SDS011;40525;55.926;21.066;2023-02-11T08:53:14;15.80;;;2.50;;
54627;SDS011;40525;55.926;21.066;2023-02-11T08:55:47;18.00;;;2.10;;
54627;SDS011;40525;55.926;21.066;2023-02-11T08:58:18;20.00;;;2.10;;
54627;SDS011;40525;55.926;21.066;2023-02-11T09:00:46;10.80;;;1.60;;
54627;SDS011;40525;55.926;21.066;2023-02-11T09:03:15;14.90;;;1.60;;
54627;SDS011;40525;55.926;21.066;2023-02-11T09:05:43;9.80;;;1.90;;
54627;SDS011;40525;55.926;21.066;2023-02-11T09:08:12;14.80;;;1.70;;
54627;SDS011;40525;55.926;21.066;2023-02-11T09:10:46;10.90;;;2.20;;
54627;SDS011;40525;55.926;21.066;2023-02-11T09:13:13;14.60;;;1.80;;
54627;SDS011;40525;55.926;21.066;2023-02-11T09:15:45;11.20;;;1.30;;
54627;SDS011;40525;55.926;21.066;2023-02-11T09:18:13;5.80;;;1.50;;
54627;SDS011;40525;55.926;21.066;2023-02-11T09:20:40;11.70;;;1.70;;
54627;SDS011;40525;55.926;21.066;2023-02-11T09:23:08;4.20;;;1.10;;
54627;SDS011;40525;55.926;21.066;2023-02-11T09:25:38;11.70;;;1.40;;
54627;SDS011;40525;55.926;21.066;2023-02-11T09:28:06;8.40;;;1.50;;
54627;SDS011;40525;55.926;21.066;2023-02-11T09:30:35;12.50;;;1.90;;
54627;SDS011;40525;55.926;21.066;2023-02-11T09:33:03;9.10;;;1.60;;
54627;SDS011;40525;55.926;21.066;2023-02-11T09:35:30;8.90;;;1.50;;
54627;SDS011;40525;55.926;21.066;2023-02-11T09:37:59;9.90;;;1.30;;
54627;SDS011;40525;55.926;21.066;2023-02-11T09:40:26;8.30;;;1.50;;
54627;SDS011;40525;55.926;21.066;2023-02-11T09:45:47;7.00;;;1.10;;
54627;SDS011;40525;55.926;21.066;2023-02-11T09:48:19;17.20;;;2.80;;
54627;SDS011;40525;55.926;21.066;2023-02-11T09:50:49;22.00;;;5.80;;
54627;SDS011;40525;55.926;21.066;2023-02-11T09:53:27;11.80;;;2.40;;
54627;SDS011;40525;55.926;21.066;2023-02-11T09:55:58;11.50;;;2.10;;
54627;SDS011;40525;55.926;21.066;2023-02-11T09:58:28;8.40;;;2.20;;
54627;SDS011;40525;55.926;21.066;2023-02-11T10:02:03;9.10;;;2.10;;
54627;SDS011;40525;55.926;21.066;2023-02-11T10:07:30;7.00;;;2.00;;
54627;SDS011;40525;55.926;21.066;2023-02-11T10:23:35;15.80;;;3.00;;
54627;SDS011;40525;55.926;21.066;2023-02-11T10:26:12;7.90;;;1.40;;
54627;SDS011;40525;55.926;21.066;2023-02-11T10:28:46;7.60;;;1.10;;
54627;SDS011;40525;55.926;21.066;2023-02-11T10:31:18;8.20;;;1.30;;
54627;SDS011;40525;55.926;21.066;2023-02-11T10:33:58;7.00;;;1.10;;
54627;SDS011;40525;55.926;21.066;2023-02-11T10:36:27;9.50;;;1.50;;
54627;SDS011;40525;55.926;21.066;2023-02-11T10:41:51;6.70;;;1.70;;
54627;SDS011;40525;55.926;21.066;2023-02-11T10:44:30;8.60;;;0.90;;
54627;SDS011;40525;55.926;21.066;2023-02-11T10:47:01;9.90;;;0.90;;
54627;SDS011;40525;55.926;21.066;2023-02-11T10:49:36;6.70;;;0.70;;
54627;SDS011;40525;55.926;21.066;2023-02-11T10:52:13;5.70;;;1.00;;
54627;SDS011;40525;55.926;21.066;2023-02-11T10:54:57;4.80;;;1.00;;
54627;SDS011;40525;55.926;21.066;2023-02-11T10:57:40;8.10;;;1.40;;
54627;SDS011;40525;55.926;21.066;2023-02-11T11:02:43;6.90;;;1.00;;
54627;SDS011;40525;55.926;21.066;2023-02-11T11:05:19;6.90;;;1.40;;
54627;SDS011;40525;55.926;21.066;2023-02-11T11:07:53;6.90;;;1.30;;
54627;SDS011;40525;55.926;21.066;2023-02-11T11:10:36;4.30;;;1.10;;
54627;SDS011;40525;55.926;21.066;2023-02-11T11:18:52;4.80;;;0.90;;
54627;SDS011;40525;55.926;21.066;2023-02-11T11:21:43;10.00;;;1.40;;
54627;SDS011;40525;55.926;21.066;2023-02-11T11:24:16;8.80;;;1.20;;
54627;SDS011;40525;55.926;21.066;2023-02-11T11:27:05;8.80;;;1.00;;
54627;SDS011;40525;55.926;21.066;2023-02-11T11:29:44;6.90;;;1.30;;
54627;SDS011;40525;55.926;21.066;2023-02-11T11:32:23;9.40;;;1.40;;
54627;SDS011;40525;55.926;21.066;2023-02-11T11:34:53;7.00;;;1.40;;
54627;SDS011;40525;55.926;21.066;2023-02-11T11:37:30;5.80;;;0.60;;
54627;SDS011;40525;55.926;21.066;2023-02-11T11:43:00;6.50;;;0.90;;
54627;SDS011;40525;55.926;21.066;2023-02-11T11:45:38;4.20;;;1.10;;
54627;SDS011;40525;55.926;21.066;2023-02-11T11:48:20;3.90;;;0.70;;
54627;SDS011;40525;55.926;21.066;2023-02-11T11:50:55;4.60;;;0.80;;
54627;SDS011;40525;55.926;21.066;2023-02-11T11:56:02;3.90;;;0.80;;
54627;SDS011;40525;55.926;21.066;2023-02-11T11:58:45;8.70;;;0.70;;
54627;SDS011;40525;55.926;21.066;2023-02-11T12:01:19;5.10;;;1.10;;
54627;SDS011;40525;55.926;21.066;2023-02-11T12:13:24;5.70;;;0.90;;
54627;SDS011;40525;55.926;21.066;2023-02-11T12:16:06;6.10;;;0.70;;
54627;SDS011;40525;55.926;21.066;2023-02-11T12:18:43;1.00;;;0.50;;
54627;SDS011;40525;55.926;21.066;2023-02-11T12:21:44;1.90;;;0.40;;
54627;SDS011;40525;55.926;21.066;2023-02-11T12:39:14;3.60;;;0.50;;
54627;SDS011;40525;55.926;21.066;2023-02-11T12:42:18;2.30;;;0.70;;
54627;SDS011;40525;55.926;21.066;2023-02-11T12:45:14;1.60;;;0.20;;
54627;SDS011;40525;55.926;21.066;2023-02-11T12:48:04;2.40;;;0.50;;
54627;SDS011;40525;55.926;21.066;2023-02-11T12:56:16;3.00;;;0.80;;
54627;SDS011;40525;55.926;21.066;2023-02-11T12:58:47;3.30;;;0.50;;
54627;SDS011;40525;55.926;21.066;2023-02-11T13:01:22;3.20;;;0.40;;
54627;SDS011;40525;55.926;21.066;2023-02-11T13:06:49;4.10;;;0.40;;
54627;SDS011;40525;55.926;21.066;2023-02-11T13:09:27;0.90;;;0.30;;
54627;SDS011;40525;55.926;21.066;2023-02-11T13:12:02;3.00;;;0.40;;
54627;SDS011;40525;55.926;21.066;2023-02-11T13:14:51;3.70;;;0.60;;
54627;SDS011;40525;55.926;21.066;2023-02-11T13:17:26;5.40;;;0.80;;
54627;SDS011;40525;55.926;21.066;2023-02-11T13:20:17;1.70;;;0.30;;
54627;SDS011;40525;55.926;21.066;2023-02-11T13:23:21;5.70;;;0.50;;
54627;SDS011;40525;55.926;21.066;2023-02-11T13:26:15;3.90;;;0.40;;
54627;SDS011;40525;55.926;21.066;2023-02-11T13:28:52;3.10;;;0.40;;
54627;SDS011;40525;55.926;21.066;2023-02-11T13:31:51;0.70;;;0.30;;
54627;SDS011;40525;55.926;21.066;2023-02-11T13:35:24;4.00;;;0.60;;
54627;SDS011;40525;55.926;21.066;2023-02-11T13:37:29;1.10;;;0.40;;
54627;SDS011;40525;55.926;21.066;2023-02-11T13:40:05;2.60;;;0.50;;
54627;SDS011;40525;55.926;21.066;2023-02-11T13:42:55;3.60;;;0.40;;
54627;SDS011;40525;55.926;21.066;2023-02-11T13:45:42;5.90;;;0.60;;
54627;SDS011;40525;55.926;21.066;2023-02-11T13:48:22;2.30;;;0.60;;
54627;SDS011;40525;55.926;21.066;2023-02-11T13:51:04;3.10;;;0.30;;
54627;SDS011;40525;55.926;21.066;2023-02-11T13:53:46;3.00;;;0.30;;
54627;SDS011;40525;55.926;21.066;2023-02-11T13:58:56;4.50;;;0.90;;
54627;SDS011;40525;55.926;21.066;2023-02-11T14:04:33;1.70;;;0.60;;
54627;SDS011;40525;55.926;21.066;2023-02-11T14:13:22;2.10;;;0.50;;
54627;SDS011;40525;55.926;21.066;2023-02-11T14:21:19;3.80;;;0.50;;
54627;SDS011;40525;55.926;21.066;2023-02-11T14:43:41;1.30;;;0.30;;
54627;SDS011;40525;55.926;21.066;2023-02-11T14:46:17;3.10;;;0.80;;
54627;SDS011;40525;55.926;21.066;2023-02-11T14:48:47;1.30;;;0.30;;
54627;SDS011;40525;55.926;21.066;2023-02-11T14:54:00;2.20;;;1.00;;
54627;SDS011;40525;55.926;21.066;2023-02-11T14:56:46;3.30;;;0.30;;
54627;SDS011;40525;55.926;21.066;2023-02-11T14:59:31;2.40;;;0.50;;
54627;SDS011;40525;55.926;21.066;2023-02-11T15:01:58;1.80;;;0.30;;
54627;SDS011;40525;55.926;21.066;2023-02-11T15:04:27;4.00;;;0.80;;
54627;SDS011;40525;55.926;21.066;2023-02-11T15:07:02;1.70;;;0.60;;
54627;SDS011;40525;55.926;21.066;2023-02-11T15:09:44;1.40;;;0.20;;
54627;SDS011;40525;55.926;21.066;2023-02-11T15:12:18;2.80;;;0.60;;
54627;SDS011;40525;55.926;21.066;2023-02-11T15:14:49;4.90;;;0.50;;
54627;SDS011;40525;55.926;21.066;2023-02-11T15:17:20;3.20;;;0.50;;
54627;SDS011;40525;55.926;21.066;2023-02-11T15:19:53;1.10;;;0.40;;
54627;SDS011;40525;55.926;21.066;2023-02-11T15:22:27;1.40;;;0.30;;
54627;SDS011;40525;55.926;21.066;2023-02-11T15:24:59;1.70;;;0.30;;
54627;SDS011;40525;55.926;21.066;2023-02-11T15:31:14;2.40;;;0.80;;
54627;SDS011;40525;55.926;21.066;2023-02-11T15:33:43;3.80;;;0.80;;
54627;SDS011;40525;55.926;21.066;2023-02-11T15:36:10;2.00;;;0.50;;
54627;SDS011;40525;55.926;21.066;2023-02-11T15:38:40;1.30;;;0.40;;
54627;SDS011;40525;55.926;21.066;2023-02-11T15:46:56;1.10;;;0.50;;
54627;SDS011;40525;55.926;21.066;2023-02-11T15:49:25;2.60;;;0.40;;
54627;SDS011;40525;55.926;21.066;2023-02-11T15:51:53;1.10;;;0.50;;
54627;SDS011;40525;55.926;21.066;2023-02-11T15:54:26;1.50;;;0.30;;
54627;SDS011;40525;55.926;21.066;2023-02-11T15:57:01;2.30;;;0.50;;
54627;SDS011;40525;55.926;21.066;2023-02-11T15:59:34;3.00;;;0.40;;
54627;SDS011;40525;55.926;21.066;2023-02-11T16:02:19;4.90;;;0.60;;
54627;SDS011;40525;55.926;21.066;2023-02-11T16:13:44;2.80;;;0.40;;
54627;SDS011;40525;55.926;21.066;2023-02-11T16:16:24;0.60;;;0.20;;
54627;SDS011;40525;55.926;21.066;2023-02-11T16:18:56;2.10;;;0.70;;
54627;SDS011;40525;55.926;21.066;2023-02-11T16:21:33;4.40;;;0.80;;
54627;SDS011;40525;55.926;21.066;2023-02-11T16:24:13;10.00;;;2.20;;
54627;SDS011;40525;55.926;21.066;2023-02-11T16:26:48;2.70;;;1.00;;
54627;SDS011;40525;55.926;21.066;2023-02-11T16:29:22;3.30;;;0.70;;
54627;SDS011;40525;55.926;21.066;2023-02-11T16:31:53;2.90;;;0.70;;
54627;SDS011;40525;55.926;21.066;2023-02-11T16:34:36;0.60;;;0.30;;
54627;SDS011;40525;55.926;21.066;2023-02-11T16:37:04;3.50;;;0.80;;
54627;SDS011;40525;55.926;21.066;2023-02-11T16:39:33;4.80;;;1.30;;
54627;SDS011;40525;55.926;21.066;2023-02-11T16:42:09;6.50;;;2.10;;
54627;SDS011;40525;55.926;21.066;2023-02-11T16:44:40;3.90;;;1.20;;
54627;SDS011;40525;55.926;21.066;2023-02-11T16:47:14;2.60;;;1.30;;
54627;SDS011;40525;55.926;21.066;2023-02-11T16:49:46;38.80;;;11.40;;
54627;SDS011;40525;55.926;21.066;2023-02-11T16:52:14;11.30;;;4.30;;
54627;SDS011;40525;55.926;21.066;2023-02-11T16:54:44;19.30;;;6.80;;
54627;SDS011;40525;55.926;21.066;2023-02-11T16:59:47;42.20;;;12.60;;
54627;SDS011;40525;55.926;21.066;2023-02-11T17:02:22;49.90;;;14.80;;
54627;SDS011;40525;55.926;21.066;2023-02-11T17:04:56;7.10;;;2.60;;
54627;SDS011;40525;55.926;21.066;2023-02-11T17:07:27;17.30;;;5.60;;
54627;SDS011;40525;55.926;21.066;2023-02-11T17:09:54;5.00;;;1.10;;
54627;SDS011;40525;55.926;21.066;2023-02-11T17:12:22;3.70;;;0.90;;
54627;SDS011;40525;55.926;21.066;2023-02-11T17:14:52;4.90;;;0.50;;
54627;SDS011;40525;55.926;21.066;2023-02-11T17:17:21;2.30;;;0.50;;
54627;SDS011;40525;55.926;21.066;2023-02-11T17:19:51;4.00;;;0.70;;
54627;SDS011;40525;55.926;21.066;2023-02-11T17:22:20;5.40;;;0.90;;
54627;SDS011;40525;55.926;21.066;2023-02-11T17:24:48;2.50;;;0.60;;
54627;SDS011;40525;55.926;21.066;2023-02-11T17:27:15;1.20;;;0.50;;
54627;SDS011;40525;55.926;21.066;2023-02-11T17:29:47;2.20;;;0.60;;
54627;SDS011;40525;55.926;21.066;2023-02-11T17:32:14;2.60;;;1.10;;
54627;SDS011;40525;55.926;21.066;2023-02-11T17:34:42;3.40;;;0.90;;
54627;SDS011;40525;55.926;21.066;2023-02-11T17:37:09;2.10;;;0.70;;
54627;SDS011;40525;55.926;21.066;2023-02-11T17:39:38;3.30;;;0.50;;
54627;SDS011;40525;55.926;21.066;2023-02-11T17:42:07;1.00;;;0.50;;
54627;SDS011;40525;55.926;21.066;2023-02-11T17:44:35;2.80;;;1.30;;
54627;SDS011;40525;55.926;21.066;2023-02-11T17:47:05;3.00;;;0.40;;
54627;SDS011;40525;55.926;21.066;2023-02-11T17:49:33;2.50;;;0.90;;
54627;SDS011;40525;55.926;21.066;2023-02-11T17:52:03;1.50;;;0.60;;
54627;SDS011;40525;55.926;21.066;2023-02-11T17:54:32;5.40;;;0.90;;
54627;SDS011;40525;55.926;21.066;2023-02-11T17:59:55;2.50;;;0.70;;
54627;SDS011;40525;55.926;21.066;2023-02-11T18:02:22;3.10;;;0.70;;
54627;SDS011;40525;55.926;21.066;2023-02-11T18:04:49;4.00;;;0.80;;
54627;SDS011;40525;55.926;21.066;2023-02-11T18:07:17;2.60;;;0.80;;
54627;SDS011;40525;55.926;21.066;2023-02-11T18:09:45;4.30;;;1.10;;
54627;SDS011;40525;55.926;21.066;2023-02-11T18:12:12;2.20;;;0.60;;
54627;SDS011;40525;55.926;21.066;2023-02-11T18:14:39;1.50;;;0.40;;
54627;SDS011;40525;55.926;21.066;2023-02-11T18:17:08;2.80;;;0.90;;
54627;SDS011;40525;55.926;21.066;2023-02-11T18:19:35;3.90;;;0.40;;
54627;SDS011;40525;55.926;21.066;2023-02-11T18:22:03;2.80;;;0.60;;
54627;SDS011;40525;55.926;21.066;2023-02-11T18:24:30;6.10;;;1.60;;
54627;SDS011;40525;55.926;21.066;2023-02-11T18:26:57;1.10;;;0.40;;
54627;SDS011;40525;55.926;21.066;2023-02-11T18:29:24;2.70;;;0.50;;
54627;SDS011;40525;55.926;21.066;2023-02-11T18:31:53;1.60;;;0.90;;
54627;SDS011;40525;55.926;21.066;2023-02-11T18:34:22;1.10;;;0.60;;
54627;SDS011;40525;55.926;21.066;2023-02-11T18:36:50;1.60;;;0.80;;
54627;SDS011;40525;55.926;21.066;2023-02-11T18:39:17;2.70;;;0.80;;
54627;SDS011;40525;55.926;21.066;2023-02-11T18:41:45;2.80;;;0.40;;
54627;SDS011;40525;55.926;21.066;2023-02-11T18:44:13;6.90;;;3.90;;
54627;SDS011;40525;55.926;21.066;2023-02-11T18:46:46;8.40;;;2.20;;
54627;SDS011;40525;55.926;21.066;2023-02-11T18:49:13;1.80;;;0.60;;
54627;SDS011;40525;55.926;21.066;2023-02-11T18:51:40;1.50;;;0.30;;
54627;SDS011;40525;55.926;21.066;2023-02-11T18:54:07;1.90;;;0.50;;
54627;SDS011;40525;55.926;21.066;2023-02-11T18:56:35;2.40;;;0.50;;
54627;SDS011;40525;55.926;21.066;2023-02-11T18:59:02;4.20;;;0.80;;
54627;SDS011;40525;55.926;21.066;2023-02-11T19:01:29;3.60;;;0.60;;
54627;SDS011;40525;55.926;21.066;2023-02-11T19:03:59;2.10;;;0.80;;
54627;SDS011;40525;55.926;21.066;2023-02-11T19:06:30;4.20;;;0.60;;
54627;SDS011;40525;55.926;21.066;2023-02-11T19:09:00;1.50;;;0.50;;
54627;SDS011;40525;55.926;21.066;2023-02-11T19:11:30;2.50;;;0.70;;
54627;SDS011;40525;55.926;21.066;2023-02-11T19:14:18;2.00;;;1.00;;
54627;SDS011;40525;55.926;21.066;2023-02-11T19:16:54;2.50;;;1.10;;
54627;SDS011;40525;55.926;21.066;2023-02-11T19:19:23;2.20;;;0.80;;
54627;SDS011;40525;55.926;21.066;2023-02-11T19:21:53;2.90;;;0.80;;
54627;SDS011;40525;55.926;21.066;2023-02-11T19:24:22;2.60;;;0.80;;
54627;SDS011;40525;55.926;21.066;2023-02-11T19:26:52;9.20;;;2.20;;
54627;SDS011;40525;55.926;21.066;2023-02-11T19:29:23;10.00;;;2.80;;
54627;SDS011;40525;55.926;21.066;2023-02-11T19:31:50;10.50;;;3.50;;
54627;SDS011;40525;55.926;21.066;2023-02-11T19:34:18;16.10;;;4.00;;
54627;SDS011;40525;55.926;21.066;2023-02-11T19:36:46;7.50;;;2.10;;
54627;SDS011;40525;55.926;21.066;2023-02-11T19:39:14;4.90;;;1.50;;
54627;SDS011;40525;55.926;21.066;2023-02-11T19:41:43;3.40;;;1.30;;
54627;SDS011;40525;55.926;21.066;2023-02-11T19:44:10;2.90;;;0.90;;
54627;SDS011;40525;55.926;21.066;2023-02-11T19:46:39;1.70;;;0.40;;
54627;SDS011;40525;55.926;21.066;2023-02-11T19:49:06;3.40;;;0.60;;
54627;SDS011;40525;55.926;21.066;2023-02-11T19:51:36;1.90;;;0.40;;
54627;SDS011;40525;55.926;21.066;2023-02-11T19:54:05;1.40;;;0.60;;
54627;SDS011;40525;55.926;21.066;2023-02-11T19:56:32;2.00;;;0.60;;
54627;SDS011;40525;55.926;21.066;2023-02-11T19:59:02;2.00;;;0.80;;
54627;SDS011;40525;55.926;21.066;2023-02-11T20:01:30;3.00;;;0.70;;
54627;SDS011;40525;55.926;21.066;2023-02-11T20:03:58;3.50;;;0.60;;
54627;SDS011;40525;55.926;21.066;2023-02-11T20:06:28;4.50;;;1.00;;
54627;SDS011;40525;55.926;21.066;2023-02-11T20:09:01;2.60;;;0.60;;
54627;SDS011;40525;55.926;21.066;2023-02-11T20:11:31;3.50;;;0.70;;
54627;SDS011;40525;55.926;21.066;2023-02-11T20:14:00;3.70;;;0.90;;
54627;SDS011;40525;55.926;21.066;2023-02-11T20:16:28;1.30;;;0.60;;
54627;SDS011;40525;55.926;21.066;2023-02-11T20:19:17;2.30;;;1.10;;
54627;SDS011;40525;55.926;21.066;2023-02-11T20:21:49;4.20;;;0.80;;
54627;SDS011;40525;55.926;21.066;2023-02-11T20:24:19;2.60;;;0.90;;
54627;SDS011;40525;55.926;21.066;2023-02-11T20:26:47;1.50;;;0.30;;
54627;SDS011;40525;55.926;21.066;2023-02-11T20:29:15;2.50;;;0.70;;
54627;SDS011;40525;55.926;21.066;2023-02-11T20:31:43;3.40;;;0.70;;
54627;SDS011;40525;55.926;21.066;2023-02-11T20:34:11;1.80;;;0.60;;
54627;SDS011;40525;55.926;21.066;2023-02-11T20:36:39;1.10;;;0.40;;
54627;SDS011;40525;55.926;21.066;2023-02-11T20:39:07;4.50;;;0.50;;
54627;SDS011;40525;55.926;21.066;2023-02-11T20:41:36;2.70;;;0.80;;
54627;SDS011;40525;55.926;21.066;2023-02-11T20:44:07;3.20;;;0.50;;
54627;SDS011;40525;55.926;21.066;2023-02-11T20:46:37;1.20;;;0.40;;
54627;SDS011;40525;55.926;21.066;2023-02-11T20:49:06;1.10;;;0.60;;
54627;SDS011;40525;55.926;21.066;2023-02-11T20:51:34;2.30;;;0.90;;
54627;SDS011;40525;55.926;21.066;2023-02-11T20:54:03;1.20;;;0.60;;
54627;SDS011;40525;55.926;21.066;2023-02-11T20:56:33;2.10;;;0.60;;
54627;SDS011;40525;55.926;21.066;2023-02-11T20:59:03;4.60;;;1.30;;
54627;SDS011;40525;55.926;21.066;2023-02-11T21:01:32;3.00;;;1.00;;
54627;SDS011;40525;55.926;21.066;2023-02-11T21:04:20;2.00;;;0.70;;
54627;SDS011;40525;55.926;21.066;2023-02-11T21:06:50;4.30;;;0.70;;
54627;SDS011;40525;55.926;21.066;2023-02-11T21:09:20;2.40;;;0.70;;
54627;SDS011;40525;55.926;21.066;2023-02-11T21:11:49;7.90;;;0.80;;
54627;SDS011;40525;55.926;21.066;2023-02-11T21:14:17;5.00;;;1.10;;
54627;SDS011;40525;55.926;21.066;2023-02-11T21:16:46;4.00;;;1.60;;
54627;SDS011;40525;55.926;21.066;2023-02-11T21:19:13;6.60;;;2.30;;
54627;SDS011;40525;55.926;21.066;2023-02-11T21:21:41;7.70;;;2.60;;
54627;SDS011;40525;55.926;21.066;2023-02-11T21:24:09;6.50;;;2.50;;
54627;SDS011;40525;55.926;21.066;2023-02-11T21:26:37;8.80;;;2.30;;
54627;SDS011;40525;55.926;21.066;2023-02-11T21:29:05;7.20;;;2.20;;
54627;SDS011;40525;55.926;21.066;2023-02-11T21:31:34;6.80;;;1.20;;
54627;SDS011;40525;55.926;21.066;2023-02-11T21:34:02;4.70;;;1.70;;
54627;SDS011;40525;55.926;21.066;2023-02-11T21:36:30;4.90;;;1.70;;
54627;SDS011;40525;55.926;21.066;2023-02-11T21:38:57;5.60;;;1.10;;
54627;SDS011;40525;55.926;21.066;2023-02-11T21:41:25;7.70;;;0.90;;
54627;SDS011;40525;55.926;21.066;2023-02-11T21:43:53;3.70;;;1.00;;
54627;SDS011;40525;55.926;21.066;2023-02-11T21:46:20;3.50;;;1.00;;
54627;SDS011;40525;55.926;21.066;2023-02-11T21:48:48;3.20;;;1.10;;
54627;SDS011;40525;55.926;21.066;2023-02-11T21:51:16;2.30;;;0.60;;
54627;SDS011;40525;55.926;21.066;2023-02-11T21:53:52;5.10;;;0.80;;
54627;SDS011;40525;55.926;21.066;2023-02-11T21:56:20;2.00;;;0.60;;
54627;SDS011;40525;55.926;21.066;2023-02-11T21:58:50;2.50;;;0.70;;
54627;SDS011;40525;55.926;21.066;2023-02-11T22:01:23;4.20;;;1.40;;
54627;SDS011;40525;55.926;21.066;2023-02-11T22:03:52;2.40;;;0.80;;
54627;SDS011;40525;55.926;21.066;2023-02-11T22:06:20;2.10;;;0.60;;
54627;SDS011;40525;55.926;21.066;2023-02-11T22:08:52;3.50;;;0.70;;
54627;SDS011;40525;55.926;21.066;2023-02-11T22:11:19;2.40;;;1.10;;
54627;SDS011;40525;55.926;21.066;2023-02-11T22:13:51;4.40;;;1.60;;
54627;SDS011;40525;55.926;21.066;2023-02-11T22:16:20;3.50;;;1.20;;
54627;SDS011;40525;55.926;21.066;2023-02-11T22:18:48;4.80;;;1.10;;
54627;SDS011;40525;55.926;21.066;2023-02-11T22:21:16;7.60;;;1.60;;
54627;SDS011;40525;55.926;21.066;2023-02-11T22:23:45;5.60;;;1.50;;
54627;SDS011;40525;55.926;21.066;2023-02-11T22:26:14;5.50;;;1.30;;
54627;SDS011;40525;55.926;21.066;2023-02-11T22:28:47;4.20;;;0.90;;
54627;SDS011;40525;55.926;21.066;2023-02-11T22:31:16;6.00;;;1.60;;
54627;SDS011;40525;55.926;21.066;2023-02-11T22:33:45;6.00;;;1.50;;
54627;SDS011;40525;55.926;21.066;2023-02-11T22:36:25;5.50;;;1.70;;
54627;SDS011;40525;55.926;21.066;2023-02-11T22:38:54;4.10;;;1.50;;
54627;SDS011;40525;55.926;21.066;2023-02-11T22:41:24;7.60;;;1.80;;
54627;SDS011;40525;55.926;21.066;2023-02-11T22:43:52;4.10;;;1.40;;
54627;SDS011;40525;55.926;21.066;2023-02-11T22:46:19;4.30;;;1.50;;
54627;SDS011;40525;55.926;21.066;2023-02-11T22:48:47;4.00;;;1.50;;
54627;SDS011;40525;55.926;21.066;2023-02-11T22:51:16;8.10;;;1.60;;
54627;SDS011;40525;55.926;21.066;2023-02-11T22:53:49;5.20;;;1.60;;
54627;SDS011;40525;55.926;21.066;2023-02-11T22:56:21;3.90;;;1.80;;
54627;SDS011;40525;55.926;21.066;2023-02-11T22:58:49;8.30;;;1.80;;
54627;SDS011;40525;55.926;21.066;2023-02-11T23:01:17;5.60;;;2.00;;
54627;SDS011;40525;55.926;21.066;2023-02-11T23:03:44;9.10;;;2.00;;
54627;SDS011;40525;55.926;21.066;2023-02-11T23:06:11;10.10;;;3.10;;
54627;SDS011;40525;55.926;21.066;2023-02-11T23:08:39;8.70;;;2.40;;
54627;SDS011;40525;55.926;21.066;2023-02-11T23:11:13;11.10;;;2.50;;
54627;SDS011;40525;55.926;21.066;2023-02-11T23:13:42;8.30;;;2.00;;
54627;SDS011;40525;55.926;21.066;2023-02-11T23:16:12;7.30;;;2.10;;
54627;SDS011;40525;55.926;21.066;2023-02-11T23:18:42;7.40;;;2.40;;
54627;SDS011;40525;55.926;21.066;2023-02-11T23:21:15;10.50;;;2.80;;
54627;SDS011;40525;55.926;21.066;2023-02-11T23:23:48;5.70;;;2.40;;
54627;SDS011;40525;55.926;21.066;2023-02-11T23:26:21;5.60;;;2.80;;
54627;SDS011;40525;55.926;21.066;2023-02-11T23:28:48;8.80;;;2.30;;
54627;SDS011;40525;55.926;21.066;2023-02-11T23:31:17;11.00;;;3.00;;
54627;SDS011;40525;55.926;21.066;2023-02-11T23:33:47;10.20;;;3.00;;
54627;SDS011;40525;55.926;21.066;2023-02-11T23:36:14;6.00;;;1.50;;
54627;SDS011;40525;55.926;21.066;2023-02-11T23:38:42;7.30;;;1.80;;
54627;SDS011;40525;55.926;21.066;2023-02-11T23:41:10;6.00;;;2.00;;
54627;SDS011;40525;55.926;21.066;2023-02-11T23:43:37;4.40;;;1.60;;
54627;SDS011;40525;55.926;21.066;2023-02-11T23:46:05;6.20;;;2.30;;
54627;SDS011;40525;55.926;21.066;2023-02-11T23:48:33;5.00;;;1.90;;
54627;SDS011;40525;55.926;21.066;2023-02-11T23:51:02;5.10;;;1.80;;
54627;SDS011;40525;55.926;21.066;2023-02-11T23:53:29;6.80;;;2.00;;
54627;SDS011;40525;55.926;21.066;2023-02-11T23:55:56;8.90;;;2.30;;
54627;SDS011;40525;55.926;21.066;2023-02-11T23:58:23;7.70;;;2.70;;
